createdAt,value
2018-02-07T00:01:59.532Z,49.37
2018-02-07T00:04:26.963Z,50.33
2018-02-07T00:06:54.383Z,43.60
2018-02-07T00:09:21.841Z,50.17
2018-02-07T00:11:49.273Z,46.87
2018-02-07T00:14:17.451Z,44.33
2018-02-07T00:16:44.896Z,48.67
2018-02-07T00:19:12.384Z,43.57
2018-02-07T00:21:39.814Z,42.90
2018-02-07T00:24:07.245Z,46.37
2018-02-07T00:26:34.671Z,45.00
2018-02-07T00:29:02.111Z,41.93
2018-02-07T00:31:29.558Z,36.97
2018-02-07T00:33:56.992Z,41.37
2018-02-07T00:36:24.420Z,40.77
2018-02-07T00:38:51.854Z,39.57
2018-02-07T00:41:19.291Z,40.80
2018-02-07T00:43:46.723Z,45.13
2018-02-07T00:46:14.911Z,42.57
2018-02-07T00:48:42.341Z,42.93
2018-02-07T00:51:09.783Z,47.23
2018-02-07T00:53:37.241Z,54.23
2018-02-07T00:56:04.671Z,52.53
2018-02-07T00:58:32.110Z,50.30
2018-02-07T01:00:59.544Z,54.20
2018-02-07T01:03:26.996Z,52.80
2018-02-07T01:05:54.419Z,47.00
2018-02-07T01:08:21.877Z,48.07
2018-02-07T01:10:49.314Z,42.40
2018-02-07T01:13:16.752Z,46.03
2018-02-07T01:15:44.197Z,48.70
2018-02-07T01:18:11.679Z,46.97
2018-02-07T01:20:39.111Z,43.93
2018-02-07T01:23:06.543Z,49.27
2018-02-07T01:25:34.024Z,47.40
2018-02-07T01:28:01.468Z,46.27
2018-02-07T01:30:29.687Z,50.50
2018-02-07T01:32:57.135Z,47.30
2018-02-07T01:35:24.555Z,50.13
2018-02-07T01:37:52.008Z,48.33
2018-02-07T01:40:20.259Z,43.97
2018-02-07T01:42:47.687Z,51.40
2018-02-07T01:45:15.119Z,44.00
2018-02-07T01:47:43.305Z,47.50
2018-02-07T01:50:10.752Z,47.70
2018-02-07T01:52:38.237Z,44.30
2018-02-07T01:55:05.667Z,44.60
2018-02-07T01:57:33.095Z,45.57
2018-02-07T02:00:00.530Z,49.63
2018-02-07T02:02:27.971Z,48.20
2018-02-07T02:04:55.408Z,42.67
2018-02-07T02:07:22.868Z,42.77
2018-02-07T02:09:50.312Z,43.80
2018-02-07T02:12:17.740Z,39.47
2018-02-07T02:14:45.176Z,42.87
2018-02-07T02:17:12.619Z,43.40
2018-02-07T02:19:40.069Z,41.60
2018-02-07T02:22:07.495Z,46.33
2018-02-07T02:24:34.931Z,42.73
2018-02-07T02:27:02.369Z,46.63
2018-02-07T02:29:29.825Z,43.87
2018-02-07T02:31:57.279Z,46.27
2018-02-07T02:34:24.732Z,44.23
2018-02-07T02:36:52.156Z,49.50
2018-02-07T02:39:19.583Z,56.57
2018-02-07T02:41:47.020Z,45.53
2018-02-07T02:44:14.477Z,43.37
2018-02-07T02:46:41.908Z,46.93
2018-02-07T02:49:09.358Z,48.83
2018-02-07T02:51:36.771Z,51.30
2018-02-07T02:54:04.224Z,54.30
2018-02-07T02:56:31.680Z,53.80
2018-02-07T02:58:59.113Z,53.97
2018-02-07T03:01:26.550Z,52.43
2018-02-07T03:03:53.995Z,56.13
2018-02-07T03:06:21.431Z,56.00
2018-02-07T03:08:48.883Z,54.83
2018-02-07T03:11:16.336Z,55.93
2018-02-07T03:13:43.768Z,48.20
2018-02-07T03:16:11.195Z,47.63
2018-02-07T03:18:38.672Z,50.20
2018-02-07T03:21:06.095Z,48.67
2018-02-07T03:23:33.547Z,45.43
2018-02-07T03:26:00.999Z,48.20
2018-02-07T03:28:28.478Z,48.73
2018-02-07T03:30:56.679Z,54.37
2018-02-07T03:33:24.124Z,59.50
2018-02-07T03:35:51.582Z,58.87
2018-02-07T03:38:19.031Z,64.47
2018-02-07T03:40:46.483Z,53.60
2018-02-07T03:43:13.937Z,58.40
2018-02-07T03:45:42.144Z,63.13
2018-02-07T03:48:09.585Z,56.80
2018-02-07T03:50:37.016Z,54.13
2018-02-07T03:53:04.495Z,58.53
2018-02-07T03:55:31.930Z,65.80
2018-02-07T03:57:59.368Z,60.10
2018-02-07T04:00:26.828Z,60.20
2018-02-07T04:02:55.759Z,54.60
2018-02-07T04:05:23.215Z,60.37
2018-02-07T04:07:50.639Z,58.03
2018-02-07T04:10:18.109Z,56.50
2018-02-07T04:12:45.589Z,57.17
2018-02-07T04:15:13.007Z,61.60
2018-02-07T04:17:40.456Z,55.70
2018-02-07T04:20:07.906Z,52.03
2018-02-07T04:22:35.361Z,58.00
2018-02-07T04:25:03.558Z,59.97
2018-02-07T04:27:31.022Z,63.87
2018-02-07T04:29:58.474Z,64.30
2018-02-07T04:32:25.919Z,58.20
2018-02-07T04:34:53.375Z,55.47
2018-02-07T04:37:21.596Z,57.43
2018-02-07T04:39:49.044Z,64.20
2018-02-07T04:42:16.475Z,57.10
2018-02-07T04:44:43.954Z,59.73
2018-02-07T04:47:11.383Z,55.87
2018-02-07T04:49:39.583Z,60.60
2018-02-07T04:52:07.817Z,55.83
2018-02-07T04:54:35.360Z,60.70
2018-02-07T04:57:02.795Z,50.67
2018-02-07T04:59:30.236Z,54.30
2018-02-07T05:01:57.697Z,54.73
2018-02-07T05:04:25.148Z,56.63
2018-02-07T05:06:53.380Z,57.57
2018-02-07T05:09:20.807Z,57.87
2018-02-07T05:11:48.231Z,66.30
2018-02-07T05:14:15.659Z,60.23
2018-02-07T05:16:43.100Z,60.17
2018-02-07T05:19:10.559Z,61.73
2018-02-07T05:21:38.012Z,69.47
2018-02-07T05:24:05.435Z,68.40
2018-02-07T05:26:32.864Z,63.77
2018-02-07T05:29:00.304Z,63.93
2018-02-07T05:31:27.743Z,57.50
2018-02-07T05:33:55.204Z,61.60
2018-02-07T05:36:22.649Z,53.37
2018-02-07T05:38:50.085Z,55.70
2018-02-07T05:41:17.528Z,57.53
2018-02-07T05:43:44.975Z,102.87
2018-02-07T05:46:12.408Z,73.43
2018-02-07T05:48:39.846Z,55.90
2018-02-07T05:51:07.291Z,51.30
2018-02-07T05:53:34.748Z,51.90
2018-02-07T05:56:02.208Z,58.90
2018-02-07T05:58:29.651Z,49.83
2018-02-07T06:00:57.089Z,46.10
2018-02-07T06:03:24.733Z,47.90
2018-02-07T06:05:52.174Z,97.70
2018-02-07T06:08:19.629Z,55.67
2018-02-07T06:10:47.064Z,43.03
2018-02-07T06:13:14.523Z,46.10
2018-02-07T06:15:41.942Z,45.50
2018-02-07T06:18:09.376Z,52.07
2018-02-07T06:20:36.832Z,37.93
2018-02-07T06:23:04.271Z,40.50
2018-02-07T06:25:31.716Z,40.93
2018-02-07T06:27:59.146Z,41.47
2018-02-07T06:30:26.625Z,43.13
2018-02-07T06:32:54.049Z,46.63
2018-02-07T06:35:21.475Z,51.03
2018-02-07T06:37:48.922Z,51.70
2018-02-07T06:40:16.355Z,56.37
2018-02-07T06:42:43.779Z,51.13
2018-02-07T06:45:11.220Z,54.57
2018-02-07T06:47:38.655Z,58.40
2018-02-07T06:50:06.105Z,52.90
2018-02-07T06:52:33.544Z,51.00
2018-02-07T06:55:00.976Z,57.57
2018-02-07T06:57:28.423Z,54.93
2018-02-07T06:59:55.884Z,54.30
2018-02-07T07:02:23.319Z,55.53
2018-02-07T07:04:50.777Z,61.17
2018-02-07T07:07:18.195Z,53.53
2018-02-07T07:09:45.628Z,60.50
2018-02-07T07:12:13.063Z,58.43
2018-02-07T07:14:40.507Z,53.83
2018-02-07T07:17:07.932Z,49.90
2018-02-07T07:19:35.388Z,54.07
2018-02-07T07:22:02.840Z,54.50
2018-02-07T07:24:30.284Z,51.97
2018-02-07T07:26:57.732Z,49.77
2018-02-07T07:29:25.184Z,57.27
2018-02-07T07:31:52.610Z,49.73
2018-02-07T07:34:20.066Z,47.00
2018-02-07T07:36:47.479Z,50.37
2018-02-07T07:39:14.924Z,49.00
2018-02-07T07:41:42.351Z,53.33
2018-02-07T07:44:09.802Z,50.37
2018-02-07T07:46:37.240Z,45.43
2018-02-07T07:49:04.673Z,49.67
2018-02-07T07:51:32.130Z,49.50
2018-02-07T07:53:59.577Z,46.87
2018-02-07T07:56:27.002Z,50.47
2018-02-07T07:58:54.431Z,49.63
2018-02-07T08:01:21.871Z,47.10
2018-02-07T08:03:49.317Z,48.10
2018-02-07T08:06:16.752Z,49.30
2018-02-07T08:08:44.952Z,49.97
2018-02-07T08:11:12.397Z,49.03
2018-02-07T08:13:39.829Z,43.43
2018-02-07T08:16:07.311Z,49.70
2018-02-07T08:18:34.715Z,46.70
2018-02-07T08:21:02.148Z,43.73
2018-02-07T08:23:29.582Z,45.97
2018-02-07T08:25:57.019Z,46.07
2018-02-07T08:28:24.447Z,44.23
2018-02-07T08:30:52.647Z,46.93
2018-02-07T08:33:20.108Z,50.03
2018-02-07T08:35:47.551Z,43.27
2018-02-07T08:38:15.008Z,41.80
2018-02-07T08:40:42.451Z,42.47
2018-02-07T08:43:09.880Z,46.13
2018-02-07T08:45:37.344Z,36.70
2018-02-07T08:48:05.589Z,40.03
2018-02-07T08:50:33.047Z,39.67
2018-02-07T08:53:01.261Z,43.40
2018-02-07T08:55:28.697Z,39.97
2018-02-07T08:57:56.128Z,46.33
2018-02-07T09:00:23.575Z,47.03
2018-02-07T09:02:51.017Z,41.87
2018-02-07T09:05:18.459Z,47.47
2018-02-07T09:07:45.915Z,43.00
2018-02-07T09:10:13.331Z,38.90
2018-02-07T09:12:40.779Z,36.87
2018-02-07T09:15:08.212Z,43.10
2018-02-07T09:17:35.652Z,42.80
2018-02-07T09:20:03.083Z,41.60
2018-02-07T09:22:30.532Z,40.93
2018-02-07T09:24:57.959Z,40.70
2018-02-07T09:27:25.408Z,44.43
2018-02-07T09:29:52.856Z,41.93
2018-02-07T09:32:20.336Z,41.80
2018-02-07T09:34:47.769Z,41.87
2018-02-07T09:37:15.217Z,43.33
2018-02-07T09:39:42.679Z,41.37
2018-02-07T09:42:10.904Z,42.67
2018-02-07T09:44:38.358Z,40.17
2018-02-07T09:47:05.776Z,48.53
2018-02-07T09:49:33.231Z,47.40
2018-02-07T09:52:00.700Z,42.50
2018-02-07T09:54:28.129Z,42.27
2018-02-07T09:56:55.559Z,42.00
2018-02-07T09:59:23.002Z,41.90
2018-02-07T10:01:50.419Z,45.30
2018-02-07T10:04:17.852Z,41.87
2018-02-07T10:06:45.272Z,42.87
2018-02-07T10:09:13.466Z,47.83
2018-02-07T10:11:40.887Z,41.83
2018-02-07T10:14:08.328Z,40.97
2018-02-07T10:16:35.752Z,38.83
2018-02-07T10:19:03.964Z,43.03
2018-02-07T10:21:31.408Z,38.30
2018-02-07T10:23:58.824Z,40.90
2018-02-07T10:26:26.271Z,39.80
2018-02-07T10:28:53.721Z,40.37
2018-02-07T10:31:21.151Z,42.30
2018-02-07T10:33:48.596Z,43.73
2018-02-07T10:36:16.023Z,39.67
2018-02-07T10:38:43.456Z,49.80
2018-02-07T10:41:10.963Z,40.53
2018-02-07T10:43:38.435Z,43.17
2018-02-07T10:46:06.615Z,39.53
2018-02-07T10:48:34.044Z,42.50
2018-02-07T10:51:01.483Z,42.70
2018-02-07T10:53:29.699Z,43.07
2018-02-07T10:55:57.119Z,42.83
2018-02-07T10:58:24.573Z,36.83
2018-02-07T11:00:52.007Z,42.90
2018-02-07T11:03:19.420Z,40.57
2018-02-07T11:05:46.844Z,41.40
2018-02-07T11:08:15.051Z,37.77
2018-02-07T11:10:42.514Z,38.70
2018-02-07T11:13:09.927Z,38.00
2018-02-07T11:15:37.339Z,37.97
2018-02-07T11:18:04.780Z,37.97
2018-02-07T11:20:32.204Z,41.20
2018-02-07T11:23:00.391Z,38.03
2018-02-07T11:25:27.815Z,40.90
2018-02-07T11:27:55.252Z,40.97
2018-02-07T11:30:23.437Z,40.43
2018-02-07T11:32:50.923Z,39.47
2018-02-07T11:35:18.353Z,40.73
2018-02-07T11:37:45.774Z,44.50
2018-02-07T11:40:13.200Z,42.73
2018-02-07T11:42:40.623Z,42.10
2018-02-07T11:45:08.074Z,40.17
2018-02-07T11:47:35.547Z,42.23
2018-02-07T11:50:02.990Z,42.33
2018-02-07T11:52:30.408Z,42.63
2018-02-07T11:54:57.885Z,37.87
2018-02-07T11:57:25.309Z,43.83
2018-02-07T11:59:52.740Z,39.07
2018-02-07T12:02:20.200Z,43.20
2018-02-07T12:04:47.628Z,41.07
2018-02-07T12:07:15.050Z,38.77
2018-02-07T12:09:42.467Z,38.37
2018-02-07T12:12:10.668Z,40.67
2018-02-07T12:14:38.084Z,40.90
2018-02-07T12:17:05.517Z,45.83
2018-02-07T12:19:33.699Z,41.20
2018-02-07T12:22:01.134Z,41.70
2018-02-07T12:24:28.557Z,40.80
2018-02-07T12:26:56.764Z,38.83
2018-02-07T12:29:24.179Z,39.03
2018-02-07T12:31:51.609Z,41.30
2018-02-07T12:34:20.591Z,41.10
2018-02-07T12:36:48.028Z,39.37
2018-02-07T12:39:15.463Z,38.67
2018-02-07T12:41:43.719Z,39.80
2018-02-07T12:44:12.623Z,36.83
2018-02-07T12:46:40.063Z,40.53
2018-02-07T12:49:07.485Z,42.07
2018-02-07T12:51:34.932Z,38.13
2018-02-07T12:54:03.128Z,38.87
2018-02-07T12:56:30.574Z,39.27
2018-02-07T12:58:58.048Z,42.13
2018-02-07T13:01:25.451Z,39.00
2018-02-07T13:03:52.880Z,38.13
2018-02-07T13:06:20.324Z,44.07
2018-02-07T13:08:47.771Z,42.60
2018-02-07T13:11:15.201Z,42.00
2018-02-07T13:13:42.645Z,42.33
2018-02-07T13:16:10.076Z,39.27
2018-02-07T13:18:37.500Z,41.63
2018-02-07T13:21:04.926Z,42.60
2018-02-07T13:23:32.343Z,36.47
2018-02-07T13:25:59.776Z,38.77
2018-02-07T13:28:27.204Z,39.90
2018-02-07T13:30:54.624Z,38.97
2018-02-07T13:33:22.051Z,40.27
2018-02-07T13:35:49.480Z,42.43
2018-02-07T13:38:17.676Z,37.43
2018-02-07T13:40:45.104Z,37.17
2018-02-07T13:43:12.527Z,35.53
2018-02-07T13:45:40.713Z,40.70
2018-02-07T13:48:08.143Z,37.93
2018-02-07T13:50:35.571Z,39.73
2018-02-07T13:53:03.755Z,38.00
2018-02-07T13:55:31.180Z,38.20
2018-02-07T13:57:58.628Z,34.90
2018-02-07T14:00:26.052Z,38.87
2018-02-07T14:02:53.488Z,40.80
2018-02-07T14:05:21.679Z,41.67
2018-02-07T14:07:49.104Z,37.10
2018-02-07T14:10:16.532Z,42.17
2018-02-07T14:12:44.735Z,36.63
2018-02-07T14:15:12.151Z,41.77
2018-02-07T14:17:39.575Z,37.67
2018-02-07T14:20:07.772Z,37.37
2018-02-07T14:22:35.204Z,35.80
2018-02-07T14:25:02.651Z,38.87
2018-02-07T14:27:30.107Z,38.47
2018-02-07T14:29:57.548Z,39.23
2018-02-07T14:32:24.971Z,41.10
2018-02-07T14:34:52.391Z,38.67
2018-02-07T14:37:19.824Z,41.20
2018-02-07T14:39:48.024Z,43.80
2018-02-07T14:42:15.452Z,39.53
2018-02-07T14:44:42.867Z,43.27
2018-02-07T14:47:11.068Z,39.50
2018-02-07T14:49:38.488Z,41.20
2018-02-07T14:52:05.915Z,40.17
2018-02-07T14:54:33.339Z,36.30
2018-02-07T14:57:01.531Z,40.23
2018-02-07T14:59:29.094Z,37.97
2018-02-07T15:01:56.499Z,41.70
2018-02-07T15:04:23.941Z,38.60
2018-02-07T15:06:52.123Z,40.27
2018-02-07T15:09:19.556Z,40.20
2018-02-07T15:11:46.988Z,40.40
2018-02-07T15:14:14.419Z,40.50
2018-02-07T15:16:42.702Z,38.17
2018-02-07T15:19:10.138Z,37.90
2018-02-07T15:21:37.555Z,40.63
2018-02-07T15:24:05.744Z,44.73
2018-02-07T15:26:33.185Z,38.93
2018-02-07T15:29:00.624Z,40.87
2018-02-07T15:31:28.074Z,41.67
2018-02-07T15:33:55.487Z,41.10
2018-02-07T15:36:23.695Z,42.13
2018-02-07T15:38:51.112Z,39.93
2018-02-07T15:41:18.560Z,39.50
2018-02-07T15:43:45.995Z,39.50
2018-02-07T15:46:13.415Z,38.50
2018-02-07T15:48:40.855Z,37.77
2018-02-07T15:51:09.059Z,40.60
2018-02-07T15:53:36.480Z,43.67
2018-02-07T15:56:03.919Z,43.07
2018-02-07T15:58:31.351Z,39.93
2018-02-07T16:00:58.792Z,40.70
2018-02-07T16:03:26.967Z,36.80
2018-02-07T16:05:54.412Z,41.13
2018-02-07T16:08:21.840Z,45.67
2018-02-07T16:10:49.271Z,40.67
2018-02-07T16:13:16.707Z,40.70
2018-02-07T16:15:44.891Z,41.27
2018-02-07T16:18:12.315Z,41.27
2018-02-07T16:20:39.741Z,39.13
2018-02-07T16:23:07.928Z,37.80
2018-02-07T16:25:35.355Z,40.23
2018-02-07T16:28:02.791Z,39.27
2018-02-07T16:30:30.228Z,40.20
2018-02-07T16:32:58.419Z,37.33
2018-02-07T16:35:25.839Z,41.20
2018-02-07T16:37:53.267Z,39.57
2018-02-07T16:40:21.519Z,35.37
2018-02-07T16:42:49.711Z,38.37
2018-02-07T16:45:17.140Z,39.77
2018-02-07T16:47:44.583Z,38.73
2018-02-07T16:50:12.020Z,41.97
2018-02-07T16:52:39.451Z,41.00
2018-02-07T16:55:07.648Z,41.10
2018-02-07T16:57:35.076Z,40.77
2018-02-07T17:00:02.507Z,40.30
2018-02-07T17:02:29.940Z,43.50
2018-02-07T17:04:58.128Z,42.43
2018-02-07T17:07:25.579Z,38.20
2018-02-07T17:09:53.000Z,39.73
2018-02-07T17:12:20.427Z,41.50
2018-02-07T17:14:47.878Z,42.30
2018-02-07T17:17:16.063Z,41.20
2018-02-07T17:19:43.483Z,41.07
2018-02-07T17:22:10.951Z,43.03
2018-02-07T17:24:38.375Z,51.90
2018-02-07T17:27:05.840Z,47.13
2018-02-07T17:29:33.243Z,42.20
2018-02-07T17:32:00.672Z,41.73
2018-02-07T17:34:28.860Z,42.90
2018-02-07T17:36:56.303Z,41.47
2018-02-07T17:39:23.735Z,41.20
2018-02-07T17:41:51.164Z,46.67
2018-02-07T17:44:18.584Z,42.03
2018-02-07T17:46:46.780Z,44.00
2018-02-07T17:49:14.252Z,42.07
2018-02-07T17:51:41.678Z,44.37
2018-02-07T17:54:09.108Z,40.10
2018-02-07T17:56:36.530Z,41.37
2018-02-07T17:59:03.965Z,43.20
2018-02-07T18:01:31.412Z,40.37
2018-02-07T18:03:58.835Z,43.53
2018-02-07T18:06:27.062Z,43.93
2018-02-07T18:08:54.495Z,40.90
2018-02-07T18:11:21.915Z,46.47
2018-02-07T18:13:49.355Z,48.57
2018-02-07T18:16:16.771Z,43.37
2018-02-07T18:18:44.195Z,40.97
2018-02-07T18:21:12.400Z,42.53
2018-02-07T18:23:39.820Z,45.17
2018-02-07T18:26:07.251Z,40.63
2018-02-07T18:28:34.699Z,42.43
2018-02-07T18:31:02.899Z,41.50
2018-02-07T18:33:30.322Z,43.70
2018-02-07T18:35:57.752Z,43.17
2018-02-07T18:38:25.223Z,44.57
2018-02-07T18:40:52.647Z,46.07
2018-02-07T18:43:20.075Z,73.57
2018-02-07T18:45:47.505Z,44.17
2018-02-07T18:48:15.699Z,42.80
2018-02-07T18:50:43.164Z,40.17
2018-02-07T18:53:10.589Z,43.23
2018-02-07T18:55:38.031Z,42.63
2018-02-07T18:58:05.471Z,42.17
2018-02-07T19:00:32.903Z,43.97
2018-02-07T19:03:00.335Z,45.20
2018-02-07T19:05:27.775Z,42.57
2018-02-07T19:07:55.199Z,47.13
2018-02-07T19:10:22.650Z,42.60
2018-02-07T19:12:50.054Z,43.53
2018-02-07T19:15:18.268Z,44.77
2018-02-07T19:17:45.703Z,43.93
2018-02-07T19:20:13.143Z,45.57
2018-02-07T19:22:40.588Z,47.97
2018-02-07T19:25:08.019Z,45.73
2018-02-07T19:27:35.464Z,46.20
2018-02-07T19:30:02.897Z,46.37
2018-02-07T19:32:30.356Z,47.20
2018-02-07T19:34:57.788Z,47.00
2018-02-07T19:37:25.227Z,46.87
2018-02-07T19:39:53.428Z,45.07
2018-02-07T19:42:20.851Z,50.43
2018-02-07T19:44:48.279Z,44.20
2018-02-07T19:47:15.704Z,46.33
2018-02-07T19:49:43.181Z,44.47
2018-02-07T19:52:10.610Z,44.50
2018-02-07T19:54:38.032Z,45.93
2018-02-07T19:57:05.468Z,44.47
2018-02-07T19:59:32.900Z,45.47
2018-02-07T20:02:01.180Z,46.77
2018-02-07T20:04:28.587Z,51.27
2018-02-07T20:06:56.794Z,46.73
2018-02-07T20:09:24.208Z,48.73
2018-02-07T20:11:51.656Z,52.57
2018-02-07T20:14:19.083Z,48.70
2018-02-07T20:16:47.295Z,49.50
2018-02-07T20:19:14.744Z,49.87
2018-02-07T20:21:42.180Z,50.77
2018-02-07T20:24:09.612Z,50.13
2018-02-07T20:26:37.052Z,53.50
2018-02-07T20:29:04.489Z,53.60
2018-02-07T20:31:31.957Z,50.40
2018-02-07T20:33:59.379Z,50.00
2018-02-07T20:36:26.816Z,55.07
2018-02-07T20:38:54.282Z,48.47
2018-02-07T20:41:21.696Z,55.17
2018-02-07T20:43:49.139Z,54.40
2018-02-07T20:46:16.578Z,51.63
2018-02-07T20:48:44.014Z,52.50
2018-02-07T20:51:11.432Z,52.63
2018-02-07T20:53:38.852Z,54.77
2018-02-07T20:56:07.044Z,50.97
2018-02-07T20:58:34.488Z,51.50
2018-02-07T21:01:02.499Z,52.33
2018-02-07T21:03:29.918Z,53.53
2018-02-07T21:05:57.369Z,52.90
2018-02-07T21:08:26.355Z,56.43
2018-02-07T21:10:53.767Z,57.10
2018-02-07T21:13:21.190Z,51.13
2018-02-07T21:15:48.623Z,55.67
2018-02-07T21:18:16.049Z,51.87
2018-02-07T21:20:44.268Z,53.60
2018-02-07T21:23:11.696Z,56.10
2018-02-07T21:25:39.123Z,60.87
2018-02-07T21:28:06.560Z,55.13
2018-02-07T21:30:33.984Z,58.03
2018-02-07T21:33:01.416Z,61.73
2018-02-07T21:35:29.601Z,59.40
2018-02-07T21:37:57.036Z,57.50
2018-02-07T21:40:24.475Z,60.43
2018-02-07T21:42:51.940Z,57.50
2018-02-07T21:45:19.353Z,60.57
2018-02-07T21:47:46.780Z,56.57
2018-02-07T21:50:15.011Z,62.60
2018-02-07T21:52:42.448Z,64.17
2018-02-07T21:55:09.851Z,63.70
2018-02-07T21:57:37.292Z,63.40
2018-02-07T22:00:04.746Z,56.77
2018-02-07T22:02:32.184Z,54.20
2018-02-07T22:04:59.600Z,55.93
2018-02-07T22:07:27.056Z,60.43
2018-02-07T22:09:54.487Z,53.17
2018-02-07T22:12:21.928Z,57.07
2018-02-07T22:14:49.360Z,58.97
2018-02-07T22:17:16.804Z,57.40
2018-02-07T22:19:44.236Z,57.37
2018-02-07T22:22:12.432Z,58.20
2018-02-07T22:24:39.857Z,58.80
2018-02-07T22:27:07.298Z,57.70
2018-02-07T22:29:34.722Z,58.30
2018-02-07T22:32:02.942Z,57.43
2018-02-07T22:34:30.362Z,55.27
2018-02-07T22:36:57.791Z,58.87
2018-02-07T22:39:25.251Z,62.07
2018-02-07T22:41:52.664Z,55.20
2018-02-07T22:44:20.105Z,59.67
2018-02-07T22:46:47.577Z,52.73
2018-02-07T22:49:15.012Z,59.17
2018-02-07T22:51:42.452Z,63.27
2018-02-07T22:54:09.879Z,60.53
2018-02-07T22:56:37.311Z,54.07
2018-02-07T22:59:04.738Z,55.67
2018-02-07T23:01:32.927Z,57.30
2018-02-07T23:04:00.369Z,56.53
2018-02-07T23:06:27.811Z,55.73
2018-02-07T23:08:55.227Z,58.87
2018-02-07T23:11:22.655Z,55.10
2018-02-07T23:13:50.835Z,57.20
2018-02-07T23:16:18.268Z,56.60
2018-02-07T23:18:45.696Z,56.17
2018-02-07T23:21:13.903Z,57.30
2018-02-07T23:23:41.335Z,53.73
2018-02-07T23:26:08.773Z,54.50
2018-02-07T23:28:36.192Z,55.83
2018-02-07T23:31:03.955Z,57.60
2018-02-07T23:33:31.397Z,53.80
2018-02-07T23:35:58.828Z,54.87
2018-02-07T23:38:27.032Z,56.87
2018-02-07T23:40:54.476Z,58.90
2018-02-07T23:43:21.903Z,56.60
2018-02-07T23:45:49.459Z,56.97
2018-02-07T23:48:16.887Z,61.67
2018-02-07T23:50:44.328Z,56.97
2018-02-07T23:53:11.768Z,55.10
2018-02-07T23:55:39.224Z,53.50
2018-02-07T23:58:06.653Z,57.63
